フォルタレザ の空港の天気 - METARとTAF

フォルタレザ/ピント・マーティンズ国際空港 ( SBFZ / FOR ) - ブラジル セアラー州フォルタレザ
飛行場実況気象(Metar)
観測時間11/27 06:00 BRT (11/27 09:00 UTC)
風向・風速東 4m/s
視程10km以上
天気現象
全天の8割程度の雲 雲底高度 610m
気温27℃
湿度79%
気圧1011hPa
METARSBFZ 270900Z 09007KT 9999 BKN020 27/23 Q1011
過去の天気等 Google飛行場航空写真 Wunderground天気予報

過去48時間のMETAR

飛行場予報(TAF)
発表時間: 11/26 21:50 BRT (11/27 00:50 UTC)
予報対象時間: 27日3時 BRT ~ 28日3時 BRT
風向・風速東 5m/s
視程10km以上
少しの雲 雲底高度 700m
27日7時 BRT ~ 27日9時 BRT に徐々に
風向・風速東 8m/s
27日15時 BRT ~ 27日18時 BRT に徐々に
風向・風速東 5m/s
TAF SBFZ 270050Z 2706/2806 10010KT 9999 FEW023 TN26/2709Z TX31/2716Z
BECMG 2710/2712 10015KT
BECMG 2718/2721 10010KT RMK PHC